Weather observations for the past three days for
North Myrtle Beach Grand Strand Airport
| Date | Time (edt) | Wind (mph) | Vis. (mi.) | Weather | Sky Cond. | Temperature (ºF) | Relative Humidity | Wind Chill (°F) | Heat Index (°F) | Pressure | Precipitation (in) | ||||||
|---|---|---|---|---|---|---|---|---|---|---|---|---|---|---|---|---|---|
| Air | Dwpt | 6 hour | altimeter (in) | sea level (mb) | 1 hr | 3 hr | 6 hr | ||||||||||
| Max. | Min. | ||||||||||||||||
| 07 | 07:53 | Calm | 10.00 | Light Rain | BKN120 | 70 | 66.9 | 73 | 69.1 | 90% | 29.88 | 1011.9 | 0.03 | ||||
| 07 | 06:53 | W 9 | 10.00 | Mostly Cloudy | FEW080 BKN110 | 72 | 66.9 | 84% | 29.91 | 1012.7 | 0.01 | ||||||
| 07 | 05:53 | SW 15 | 10.00 | Light Rain | BKN090 OVC110 | 71.1 | 68 | 90% | 29.88 | 1012.0 | |||||||
| 07 | 04:53 | S 14 | 10.00 | Overcast | BKN095 OVC110 | 72 | 68 | 87% | 29.86 | 1011.2 | 0.02 | ||||||
| 07 | 03:53 | S 10 | 10.00 | Mostly Cloudy | BKN110 | 71.1 | 66 | 84% | 29.87 | 1011.5 | |||||||
| 07 | 02:53 | S 9 | 10.00 | Light Rain | OVC100 | 69.1 | 66 | 90% | 29.88 | 1011.8 | 0.02 | ||||||
| 07 | 01:53 | Vrbl 6 | 10.00 | Light Rain | BKN070 OVC085 | 71.1 | 66.9 | 73 | 71.1 | 87% | 29.96 | 1014.6 | 0.01 | 0.01 | |||
| 07 | 00:53 | SW 14 | 10.00 | A Few Clouds | FEW110 | 72 | 69.1 | 91% | 29.94 | 1014.0 | |||||||
| 06 | 23:53 | SW 8 | 10.00 | Fair | CLR | 71.1 | 68 | 90% | 29.93 | 1013.5 | |||||||
| 06 | 22:53 | S 13 | 10.00 | Fair | CLR | 71.1 | 66.9 | 87% | 29.92 | 1013.2 | |||||||
| 06 | 21:53 | SW 15 | 10.00 | Fair | CLR | 71.1 | 66.9 | 87% | 29.94 | 1013.9 | |||||||
| 06 | 20:53 | SW 17 G 28 | 10.00 | Fair | CLR | 71.1 | 66.9 | 87% | 29.94 | 1013.9 | |||||||
| 06 | 19:53 | S 17 | 10.00 | Fair | CLR | 72 | 66 | 79 | 72 | 82% | 29.93 | 1013.6 | |||||
| 06 | 18:53 | SW 21 G 32 | 10.00 | Fair and Breezy | CLR | 73.9 | 64.9 | 74% | 29.93 | 1013.6 | |||||||
| 06 | 17:53 | SW 21 G 33 | 10.00 | Fair and Breezy | CLR | 75.9 | 63 | 64% | 78 | 29.93 | 1013.7 | ||||||
| 06 | 16:53 | SW 18 | 10.00 | Fair | CLR | 75.9 | 64 | 67% | 78 | 29.94 | 1013.7 | ||||||
| 06 | 15:53 | SW 16 G 32 | 10.00 | Fair | CLR | 75.9 | 63 | 64% | 78 | 29.94 | 1014.0 | ||||||
| 06 | 14:53 | S 17 G 28 | 10.00 | Fair | CLR | 77 | 64 | 64% | 79 | 29.98 | 1015.2 | ||||||
| 06 | 13:53 | SW 17 G 26 | 10.00 | Fair | CLR | 77 | 64 | 78.1 | 69.1 | 64% | 79 | 30 | 1015.8 | ||||
| 06 | 12:53 | SW 16 | 10.00 | Fair | CLR | 75.9 | 64 | 67% | 78 | 30.01 | 1016.3 | ||||||
| 06 | 11:53 | S 15 | 10.00 | Fair | CLR | 77 | 62.1 | 60% | 79 | 30.03 | 1016.8 | ||||||
| 06 | 10:53 | SW 15 | 10.00 | Fair | CLR | 75.9 | 60.1 | 58% | 78 | 30.03 | 1016.9 | ||||||
| 06 | 09:53 | SW 14 | 10.00 | Fair | CLR | 73.9 | 61 | 64% | 30.02 | 1016.8 | |||||||
| 06 | 08:53 | SW 13 | 10.00 | Fair | CLR | 73 | 61 | 66% | 30.02 | 1016.5 | |||||||
| 06 | 07:53 | SW 9 | 10.00 | Fair | CLR | 69.1 | 61 | 69.1 | 62.1 | 76% | 30.01 | 1016.4 | |||||
| 06 | 06:53 | Calm | 10.00 | A Few Clouds | FEW030 | 63 | 62.1 | 97% | 30 | 1015.9 | |||||||
| 06 | 05:53 | Calm | 10.00 | Mostly Cloudy | BKN030 | 64 | 62.1 | 93% | 30 | 1015.9 | |||||||
| 06 | 04:53 | SW 6 | 10.00 | Fair | CLR | 66.9 | 63 | 87% | 29.99 | 1015.5 | |||||||
| 06 | 03:53 | S 7 | 10.00 | Fair | CLR | 68 | 63 | 84% | 29.99 | 1015.5 | |||||||
| 06 | 02:53 | S 6 | 10.00 | Fair | CLR | 66.9 | 63 | 87% | 29.98 | 1015.4 | |||||||
| 06 | 01:53 | S 6 | 10.00 | Fair | CLR | 66.9 | 62.1 | 69.1 | 66 | 84% | 30.01 | 1016.4 | |||||
| 06 | 00:53 | S 5 | 10.00 | Fair | CLR | 66.9 | 62.1 | 84% | 30.03 | 1016.8 | |||||||
| 05 | 23:53 | S 6 | 10.00 | Fair | CLR | 66.9 | 60.1 | 79% | 30.03 | 1017.1 | |||||||
| 05 | 22:53 | S 7 | 10.00 | Fair | CLR | 68 | 61 | 78% | 30.04 | 1017.3 | |||||||
| 05 | 21:53 | S 7 | 10.00 | Fair | CLR | 68 | 60.1 | 76% | 30.04 | 1017.2 | |||||||
| 05 | 20:53 | S 8 | 10.00 | Fair | CLR | 69.1 | 59 | 70% | 30.03 | 1017.0 | |||||||
| 05 | 19:53 | S 9 | 10.00 | Fair | CLR | 69.1 | 60.1 | 75 | 69.1 | 73% | 30.03 | 1017.0 | |||||
| 05 | 18:53 | S 12 | 10.00 | Fair | CLR | 72 | 59 | 64% | 30.03 | 1017.0 | |||||||
| 05 | 17:53 | S 10 | 10.00 | Fair | CLR | 73 | 57.9 | 59% | 30.03 | 1017.1 | |||||||
| 05 | 16:53 | SW 12 | 10.00 | Fair | CLR | 73.9 | 59 | 60% | 30.04 | 1017.2 | |||||||
| 05 | 15:53 | S 13 | 10.00 | Fair | CLR | 73 | 57.9 | 59% | 30.04 | 1017.4 | |||||||
| 05 | 14:53 | S 10 | 10.00 | Fair | CLR | 73.9 | 57.9 | 57% | 30.06 | 1018.1 | |||||||
| 05 | 13:53 | S 10 | 10.00 | Fair | CLR | 73 | 57 | 75 | 60.1 | 57% | 30.07 | 1018.4 | |||||
| 05 | 12:53 | S 10 | 10.00 | Fair | CLR | 73 | 57.9 | 59% | 30.09 | 1018.9 | |||||||
| 05 | 11:53 | S 10 | 10.00 | Fair | CLR | 73 | 55.9 | 55% | 30.1 | 1019.2 | |||||||
| 05 | 10:53 | SW 8 G 17 | 10.00 | Fair | CLR | 72 | 55.9 | 57% | 30.09 | 1019.0 | |||||||
| 05 | 09:53 | S 8 | 10.00 | Fair | CLR | 72 | 57.9 | 61% | 30.08 | 1018.8 | |||||||
| 05 | 08:53 | SW 9 | 10.00 | Fair | CLR | 70 | 57 | 64% | 30.08 | 1018.5 | |||||||
| 05 | 07:53 | Calm | 10.00 | Fair | CLR | 60.1 | 59 | 66 | 55.9 | 96% | 30.07 | 1018.3 | |||||
| 05 | 06:53 | Calm | 7.00 | Fair | CLR | 57 | 57 | 100% | 30.05 | 1017.6 | |||||||
| 05 | 05:53 | Calm | 10.00 | Fair | CLR | 59 | 57.9 | 96% | 30.03 | 1017.0 | |||||||
| 05 | 04:53 | Calm | 10.00 | Fair | CLR | 57.9 | 57 | 97% | 30.02 | 1016.6 | |||||||
| 05 | 03:53 | W 3 | 10.00 | Fair | CLR | 62.1 | 57.9 | 86% | 30.02 | 1016.5 | |||||||
| 05 | 02:53 | SW 9 | 10.00 | Fair | CLR | 64.9 | 57 | 76% | 30.02 | 1016.6 | |||||||
| 05 | 01:53 | SW 9 | 10.00 | Fair | CLR | 66 | 55.9 | 68 | 66 | 70% | 30.03 | 1017.1 | |||||
| 05 | 00:53 | SW 10 | 10.00 | Fair | CLR | 66.9 | 55 | 66% | 30.05 | 1017.5 | |||||||
| 04 | 23:53 | SW 9 | 10.00 | Fair | CLR | 66 | 55.9 | 70% | 30.05 | 1017.6 | |||||||
| 04 | 22:53 | SW 9 | 10.00 | Fair | CLR | 66.9 | 55 | 66% | 30.05 | 1017.5 | |||||||
| 04 | 21:53 | SW 14 | 10.00 | Fair | CLR | 68 | 53.1 | 59% | 30.05 | 1017.5 | |||||||
| 04 | 20:53 | SW 13 | 10.00 | Fair | CLR | 68 | 54 | 61% | 30.03 | 1017.0 | |||||||
| 04 | 19:53 | SW 13 | 10.00 | Fair | CLR | 68 | 53.1 | 73 | 68 | 59% | 30.02 | 1016.7 | |||||
| 04 | 18:53 | S 16 | 10.00 | Fair | CLR | 70 | 52 | 53% | 30.01 | 1016.4 | |||||||
| 04 | 17:53 | S 13 G 26 | 10.00 | Fair | CLR | 71.1 | 53.1 | 53% | 30.02 | 1016.5 | |||||||
| 04 | 16:53 | S 18 G 25 | 10.00 | Fair | CLR | 72 | 53.1 | 52% | 30.02 | 1016.6 | |||||||
| 04 | 15:53 | S 16 | 10.00 | Fair | CLR | 73 | 53.1 | 50% | 30.03 | 1017.1 | |||||||
| 04 | 14:53 | S 15 G 23 | 10.00 | Fair | CLR | 72 | 54 | 53% | 30.05 | 1017.6 | |||||||
| 04 | 13:53 | S 13 G 24 | 10.00 | Fair | CLR | 72 | 53.1 | 73 | 57.9 | 52% | 30.06 | 1018.0 | |||||
| 04 | 12:53 | S 13 | 10.00 | Fair | CLR | 71.1 | 53.1 | 53% | 30.06 | 1018.1 | |||||||
| 04 | 11:53 | S 12 | 10.00 | Fair | CLR | 72 | 54 | 53% | 30.08 | 1018.5 | |||||||
| 04 | 10:53 | S 12 | 10.00 | Fair | CLR | 71.1 | 51.1 | 49% | 30.07 | 1018.5 | |||||||
| 04 | 09:53 | SW 12 | 10.00 | Fair | CLR | 70 | 48.9 | 47% | 30.08 | 1018.6 | |||||||
| 04 | 08:53 | W 7 | 10.00 | Fair | CLR | 66 | 51.1 | 59% | 30.08 | 1018.6 | |||||||
| Date | Time (edt) | Wind (mph) | Vis. (mi.) | Weather | Sky Cond. | Air | Dwpt | Max. | Min. | Relative Humidity | Wind Chill (°F) | Heat Index (°F) | altimeter (in) | sea level (mb) | 1 hr | 3 hr | 6 hr |
| 6 hour | |||||||||||||||||
| Temperature (ºF) | Pressure | Precipitation (in) | |||||||||||||||